Terminal Aerodrome Forecast
Issued by NWS North Platte, NE

Home | Current Version | Previous Version | Text Only | Print | Product List | Glossary On
Versions: 1 2 3 4 5 6 7 8 9 10 11 12 13 14 15 16
000
FTUS43 KLBF 262300
TAFLBF
TAF
KLBF 262320Z 2700/2724 VRB06KT P6SM SCT150
     FM271000 13004KT P6SM BKN150
     FM271600 17010KT P6SM BKN060 OVC120
     FM271900 17014G20KT P6SM BKN060 OVC120=

USA.gov is the U.S. government's official web portal to all federal, state and local government web resources and services.